Time;durP1;ratioP1;P1;durP2;ratioP2;P2;SDS_P1;SDS_P2;PMS_P1;PMS_P2;Temp;Humidity;BMP_temperature;BMP_pressure;BME280_temperature;BME280_humidity;BME280_pressure;Samples;Min_cycle;Max_cycle;Signal;HPM_P1;HPM_P2
2022/11/17 00:02:02;;;;;;;13.57;1.45;;;19.80;52.40;;;;;;4122415;28;20034;-60
2022/11/17 00:04:27;;;;;;;5.85;1.02;;;19.80;52.50;;;;;;4126462;28;20029;-59
2022/11/17 00:06:50;;;;;;;4.05;1.00;;;19.90;52.70;;;;;;4124304;28;20104;-59
2022/11/17 00:09:17;;;;;;;6.72;1.00;;;20.00;52.80;;;;;;4123901;28;20037;-59
2022/11/17 00:14:32;;;;;;;2.85;0.82;;;20.10;52.70;;;;;;4123093;28;20038;-57
2022/11/17 00:16:54;;;;;;;2.83;0.75;;;20.20;52.60;;;;;;4124858;28;20497;-57
2022/11/17 00:21:57;;;;;;;1.65;0.73;;;20.30;52.50;;;;;;4126308;28;20030;-60
2022/11/17 00:24:21;;;;;;;6.53;1.40;;;20.40;52.30;;;;;;4124579;28;20046;-61
2022/11/17 00:27:02;;;;;;;7.25;0.77;;;20.40;52.60;;;;;;4130164;28;20054;-61
2022/11/17 00:29:25;;;;;;;3.63;0.68;;;20.50;52.80;;;;;;4132964;28;20500;-61
2022/11/17 00:34:28;;;;;;;1.35;0.43;;;20.60;52.50;;;;;;4135563;28;20038;-60
2022/11/17 00:36:54;;;;;;;3.20;0.73;;;20.60;52.30;;;;;;4133732;28;20037;-54
2022/11/17 00:39:18;;;;;;;2.78;0.70;;;20.60;52.30;;;;;;4128462;28;20121;-61
2022/11/17 00:41:41;;;;;;;1.13;0.45;;;20.70;52.80;;;;;;4133076;28;20061;-60
2022/11/17 00:44:04;;;;;;;4.78;0.68;;;20.70;52.50;;;;;;4134099;28;20481;-61
2022/11/17 00:46:27;;;;;;;3.13;0.68;;;20.80;52.50;;;;;;4127728;28;20081;-59
2022/11/17 00:48:49;;;;;;;1.27;0.57;;;20.80;52.30;;;;;;4131421;28;20144;-58
2022/11/17 00:51:12;;;;;;;4.95;0.50;;;20.80;52.30;;;;;;4127752;28;20852;-58
2022/11/17 00:53:34;;;;;;;1.75;0.50;;;20.90;52.30;;;;;;4133448;28;20076;-61
2022/11/17 00:55:57;;;;;;;1.48;0.38;;;20.90;52.20;;;;;;4131325;28;20042;-61
2022/11/17 00:58:19;;;;;;;1.10;0.57;;;20.90;52.10;;;;;;4129915;28;20034;-61
2022/11/17 01:00:42;;;;;;;1.27;0.40;;;20.90;52.00;;;;;;4129144;28;20057;-60
2022/11/17 01:03:04;;;;;;;1.95;0.32;;;21.00;51.90;;;;;;4134284;28;20429;-60
2022/11/17 01:05:27;;;;;;;0.68;0.52;;;21.00;51.90;;;;;;4131107;28;20037;-58
2022/11/17 01:07:53;;;;;;;1.15;0.75;;;21.00;51.80;;;;;;4131347;28;20379;-58
2022/11/17 01:10:16;;;;;;;0.50;0.45;;;21.00;50.10;;;;;;4130615;28;20471;-52
2022/11/17 01:12:39;;;;;;;1.15;0.75;;;21.00;48.40;;;;;;4131723;28;20050;-55
2022/11/17 01:15:01;;;;;;;0.90;0.60;;;20.90;47.80;;;;;;4132756;28;20125;-61
2022/11/17 01:17:25;;;;;;;2.65;0.77;;;20.90;48.10;;;;;;4132549;28;20053;-62
2022/11/17 01:19:49;;;;;;;6.13;0.75;;;20.80;47.70;;;;;;4130639;28;20121;-60
2022/11/17 01:22:11;;;;;;;0.98;0.60;;;20.80;48.00;;;;;;4119398;28;20163;-62
2022/11/17 01:24:34;;;;;;;1.73;0.90;;;20.80;47.30;;;;;;4134255;28;20123;-62
2022/11/17 01:26:57;;;;;;;1.95;1.08;;;20.70;47.20;;;;;;4133993;28;20532;-60
2022/11/17 01:29:19;;;;;;;1.00;0.60;;;20.70;47.20;;;;;;4128916;28;20978;-62
2022/11/17 01:31:42;;;;;;;2.55;0.70;;;20.70;47.30;;;;;;4126115;28;20513;-62
2022/11/17 01:34:06;;;;;;;1.47;0.63;;;20.70;47.70;;;;;;4127427;28;20078;-62
2022/11/17 01:39:15;;;;;;;4.22;0.80;;;20.80;48.50;;;;;;4131308;28;20044;-61
2022/11/17 01:41:37;;;;;;;2.85;0.40;;;20.80;49.10;;;;;;4127400;28;20033;-54
2022/11/17 01:44:35;;;;;;;2.05;0.65;;;20.80;49.20;;;;;;4125931;28;20061;-58
2022/11/17 01:46:58;;;;;;;0.50;0.50;;;20.80;48.90;;;;;;4130668;28;20660;-56
2022/11/17 01:49:27;;;;;;;2.38;0.40;;;20.80;49.20;;;;;;4127717;28;20537;-57
2022/11/17 01:51:59;;;;;;;1.75;0.60;;;20.80;49.30;;;;;;4131626;28;20061;-57
2022/11/17 01:54:26;;;;;;;1.83;0.60;;;20.90;49.40;;;;;;4129722;28;20041;-60
2022/11/17 01:56:53;;;;;;;0.75;0.45;;;20.90;49.60;;;;;;4130218;28;20408;-61
2022/11/17 01:59:31;;;;;;;1.90;0.73;;;20.90;49.70;;;;;;4124753;28;20124;-58
2022/11/17 02:01:54;;;;;;;1.30;0.50;;;21.00;49.90;;;;;;4128529;28;20061;-58
2022/11/17 02:04:17;;;;;;;2.70;0.65;;;21.00;49.80;;;;;;4129776;28;20052;-58
2022/11/17 02:06:40;;;;;;;4.88;0.70;;;21.00;49.90;;;;;;4128063;28;20045;-62
2022/11/17 02:09:03;;;;;;;1.15;0.50;;;21.00;50.00;;;;;;4127132;28;20148;-60
2022/11/17 02:11:34;;;;;;;1.50;0.43;;;21.10;50.10;;;;;;4132703;28;20057;-61
2022/11/17 02:13:57;;;;;;;1.27;0.50;;;21.10;50.00;;;;;;4132338;28;20130;-61
2022/11/17 02:16:19;;;;;;;0.70;0.40;;;21.10;50.00;;;;;;4132733;28;20579;-61
2022/11/17 02:18:43;;;;;;;0.68;0.50;;;21.10;50.10;;;;;;4129365;28;20038;-59
2022/11/17 02:21:26;;;;;;;2.42;0.50;;;21.10;50.10;;;;;;4129586;28;20046;-60
2022/11/17 02:24:16;;;;;;;0.80;0.40;;;21.20;50.20;;;;;;4131614;28;20038;-63
2022/11/17 02:27:15;;;;;;;0.55;0.38;;;21.20;50.10;;;;;;4115289;28;20050;-61
2022/11/17 02:29:53;;;;;;;0.43;0.43;;;21.20;50.10;;;;;;4127626;28;20064;-61
2022/11/17 02:32:38;;;;;;;0.60;0.45;;;21.30;50.00;;;;;;4133172;28;20049;-62
2022/11/17 02:35:22;;;;;;;1.58;0.45;;;21.30;50.00;;;;;;4130605;28;20037;-63
2022/11/17 02:38:06;;;;;;;2.65;0.52;;;21.30;50.00;;;;;;4127163;28;20173;-61
2022/11/17 02:40:48;;;;;;;1.40;0.50;;;21.30;50.00;;;;;;4130231;28;20038;-60
2022/11/17 02:46:20;;;;;;;0.40;0.40;;;21.40;50.00;;;;;;4127187;28;20034;-60
2022/11/17 02:48:58;;;;;;;1.25;0.60;;;21.40;49.90;;;;;;4131180;28;20041;-61
2022/11/17 02:51:23;;;;;;;1.55;0.40;;;21.50;50.00;;;;;;4130235;28;20050;-60
2022/11/17 02:53:47;;;;;;;0.60;0.40;;;21.40;49.90;;;;;;4114469;28;20505;-58
2022/11/17 02:56:09;;;;;;;0.98;0.50;;;21.50;49.80;;;;;;4127241;28;20473;-59
2022/11/17 02:58:32;;;;;;;1.52;0.50;;;21.50;49.50;;;;;;4128023;28;20125;-59
2022/11/17 03:01:12;;;;;;;0.77;0.60;;;21.50;49.60;;;;;;4131427;28;20077;-59
2022/11/17 03:04:10;;;;;;;1.08;0.52;;;21.50;49.70;;;;;;4128198;28;20073;-57
2022/11/17 03:07:18;;;;;;;4.22;0.60;;;21.50;49.70;;;;;;4120702;28;20390;-58
2022/11/17 03:09:55;;;;;;;0.63;0.40;;;21.60;50.00;;;;;;4090784;28;20451;-59
2022/11/17 03:12:47;;;;;;;1.70;0.60;;;21.60;50.00;;;;;;4123450;28;20046;-59
2022/11/17 03:15:28;;;;;;;1.27;0.55;;;21.60;50.00;;;;;;4120536;28;20056;-60
2022/11/17 03:18:21;;;;;;;0.75;0.50;;;21.70;50.00;;;;;;4124132;28;20045;-61
2022/11/17 03:21:04;;;;;;;2.03;0.47;;;21.70;50.10;;;;;;4119569;28;20168;-59
2022/11/17 03:23:41;;;;;;;0.38;0.38;;;21.70;50.00;;;;;;4123276;28;20518;-58
2022/11/17 03:26:09;;;;;;;0.80;0.40;;;21.70;50.00;;;;;;4122651;28;20166;-60
2022/11/17 03:28:33;;;;;;;1.17;0.30;;;21.80;49.90;;;;;;4121845;28;20052;-59
2022/11/17 03:30:56;;;;;;;0.40;0.32;;;21.80;49.80;;;;;;4125073;28;20243;-58
2022/11/17 03:33:22;;;;;;;1.23;0.63;;;21.80;50.00;;;;;;4125073;28;20152;-61
2022/11/17 03:36:13;;;;;;;3.40;0.50;;;21.80;49.90;;;;;;4127683;28;20457;-60
2022/11/17 03:38:38;;;;;;;1.15;0.40;;;21.90;49.90;;;;;;4126700;28;20540;-59
2022/11/17 03:41:03;;;;;;;0.55;0.50;;;21.90;49.80;;;;;;4128625;28;20038;-61
2022/11/17 03:43:28;;;;;;;1.05;0.50;;;21.90;49.80;;;;;;4131369;28;20113;-63
2022/11/17 03:45:54;;;;;;;3.47;0.73;;;21.90;49.60;;;;;;4133209;28;20483;-61
2022/11/17 03:48:34;;;;;;;0.70;0.50;;;22.00;49.60;;;;;;4130998;28;20038;-60
2022/11/17 03:51:08;;;;;;;1.05;0.57;;;22.00;49.30;;;;;;4128864;28;20136;-61
2022/11/17 03:53:31;;;;;;;0.50;0.40;;;22.00;49.30;;;;;;4128927;28;20121;-60
2022/11/17 03:56:01;;;;;;;2.03;0.70;;;22.00;49.30;;;;;;4122949;28;20514;-60
2022/11/17 03:58:29;;;;;;;0.63;0.40;;;22.10;49.20;;;;;;4125980;28;20053;-61
2022/11/17 04:00:54;;;;;;;2.05;0.73;;;22.10;49.20;;;;;;4129253;28;20105;-60
2022/11/17 04:03:17;;;;;;;1.23;0.45;;;22.10;49.20;;;;;;4132609;28;20046;-58
2022/11/17 04:05:40;;;;;;;1.25;0.60;;;22.20;49.20;;;;;;4134838;28;20120;-60
2022/11/17 04:08:02;;;;;;;0.63;0.40;;;22.20;49.30;;;;;;4133303;28;20042;-61
2022/11/17 04:10:25;;;;;;;0.82;0.50;;;22.30;49.20;;;;;;4132253;28;20538;-59
2022/11/17 04:18:10;;;;;;;1.90;0.70;;;22.40;49.00;;;;;;4129717;28;20045;-58
2022/11/17 04:20:36;;;;;;;1.02;0.50;;;22.50;49.00;;;;;;4130180;28;20041;-60
2022/11/17 04:23:07;;;;;;;1.10;0.45;;;22.50;48.90;;;;;;4137091;28;20037;-61
2022/11/17 04:30:50;;;;;;;0.93;0.50;;;22.70;48.50;;;;;;4131179;28;20582;-60
2022/11/17 04:33:13;;;;;;;0.85;0.55;;;22.70;48.50;;;;;;4127587;28;20417;-62
2022/11/17 04:35:35;;;;;;;1.20;0.60;;;22.80;48.40;;;;;;4134923;28;20065;-60
2022/11/17 04:37:58;;;;;;;1.50;0.60;;;22.90;48.40;;;;;;4127195;28;20042;-60
2022/11/17 04:40:20;;;;;;;0.93;0.50;;;22.90;48.30;;;;;;4131587;28;20054;-59
2022/11/17 04:42:43;;;;;;;0.60;0.40;;;23.00;48.20;;;;;;4130156;28;20060;-60
2022/11/17 04:45:06;;;;;;;1.02;0.50;;;23.10;48.00;;;;;;4130534;28;20042;-54
2022/11/17 04:47:28;;;;;;;1.05;0.73;;;23.10;47.90;;;;;;4130780;28;20164;-58
2022/11/17 04:49:51;;;;;;;0.52;0.45;;;23.20;47.90;;;;;;4128690;28;20034;-56
2022/11/17 04:52:13;;;;;;;1.70;0.52;;;23.20;47.80;;;;;;4128526;28;20558;-59
2022/11/17 04:54:36;;;;;;;0.50;0.40;;;23.30;47.80;;;;;;4133158;28;20030;-59
2022/11/17 04:56:58;;;;;;;1.00;0.52;;;23.40;47.50;;;;;;4133171;28;20041;-57
2022/11/17 04:59:21;;;;;;;1.52;0.60;;;23.50;47.00;;;;;;4127063;28;20046;-60
2022/11/17 05:01:44;;;;;;;0.50;0.50;;;23.50;46.80;;;;;;4134751;28;20065;-60
2022/11/17 05:04:10;;;;;;;1.30;0.57;;;23.60;46.90;;;;;;4126073;28;20041;-59
2022/11/17 05:06:35;;;;;;;1.25;0.60;;;23.60;46.80;;;;;;4121896;28;21747;-52
2022/11/17 05:08:59;;;;;;;1.15;0.47;;;23.70;47.10;;;;;;4124096;28;20049;-51
2022/11/17 05:14:06;;;;;;;3.20;0.80;;;23.80;46.80;;;;;;4122331;28;20532;-56
2022/11/17 05:19:13;;;;;;;2.47;0.70;;;23.90;46.50;;;;;;4125954;28;20112;-47
2022/11/17 05:21:35;;;;;;;4.25;0.60;;;24.00;46.30;;;;;;4123886;28;20409;-48
2022/11/17 05:23:58;;;;;;;1.58;0.40;;;24.10;46.30;;;;;;4105051;28;20134;-56
2022/11/17 05:26:26;;;;;;;0.45;0.30;;;24.20;46.20;;;;;;4120771;28;20058;-50
2022/11/17 05:28:49;;;;;;;2.08;0.60;;;24.20;46.10;;;;;;4130874;28;20050;-52
2022/11/17 05:31:13;;;;;;;1.60;0.50;;;24.30;46.00;;;;;;4132561;28;20133;-52
2022/11/17 05:33:35;;;;;;;;;;;24.40;46.00;;;;;;4133051;28;20034;-49
2022/11/17 05:35:58;;;;;;;1.95;0.30;;;24.40;45.90;;;;;;4135677;28;20250;-52
2022/11/17 05:38:20;;;;;;;1.15;0.52;;;24.50;45.80;;;;;;4136221;28;20029;-46
2022/11/17 05:40:43;;;;;;;1.40;0.50;;;24.60;45.70;;;;;;4130019;28;20128;-53
2022/11/17 05:43:05;;;;;;;0.63;0.50;;;24.60;45.70;;;;;;4129268;28;20080;-49
2022/11/17 05:45:28;;;;;;;0.85;0.43;;;24.70;45.40;;;;;;4122169;28;20034;-51
2022/11/17 05:47:50;;;;;;;0.88;0.47;;;24.70;45.50;;;;;;4119582;28;20042;-43
2022/11/17 05:50:13;;;;;;;1.48;0.45;;;24.80;45.40;;;;;;4125382;28;20042;-52
2022/11/17 05:52:36;;;;;;;1.58;0.63;;;24.80;45.30;;;;;;4117655;28;20057;-53
2022/11/17 05:54:58;;;;;;;4.07;0.60;;;24.90;45.30;;;;;;4123809;28;20593;-57
2022/11/17 05:57:27;;;;;;;0.73;0.43;;;24.90;45.20;;;;;;4115404;28;20037;-50
2022/11/17 05:59:54;;;;;;;1.65;0.60;;;25.00;45.20;;;;;;4117627;28;20077;-51
2022/11/17 06:02:24;;;;;;;1.55;0.60;;;25.00;45.30;;;;;;4123723;28;20053;-46
2022/11/17 06:04:49;;;;;;;1.52;0.43;;;25.00;45.10;;;;;;4123941;28;20048;-50
2022/11/17 06:07:12;;;;;;;1.92;0.60;;;25.10;45.20;;;;;;4125784;28;20044;-50
2022/11/17 06:09:37;;;;;;;1.95;0.52;;;25.10;45.30;;;;;;4119937;28;20033;-50
2022/11/17 06:12:00;;;;;;;0.40;0.40;;;25.10;45.30;;;;;;4129009;28;20042;-49
2022/11/17 06:14:23;;;;;;;3.30;0.50;;;25.10;45.20;;;;;;4134217;28;20050;-48
2022/11/17 06:16:52;;;;;;;0.65;0.52;;;25.10;45.20;;;;;;4132481;28;20041;-51
2022/11/17 06:19:25;;;;;;;1.63;0.65;;;25.20;45.80;;;;;;4131265;28;20128;-53
2022/11/17 06:21:49;;;;;;;2.33;0.60;;;25.20;45.20;;;;;;4130280;28;20104;-53
2022/11/17 06:24:11;;;;;;;;;;;25.20;45.20;;;;;;4132264;28;20272;-44
2022/11/17 06:26:34;;;;;;;1.23;0.50;;;25.10;45.40;;;;;;4130865;28;20024;-53
2022/11/17 06:28:57;;;;;;;2.45;0.63;;;25.10;45.40;;;;;;4133037;28;20038;-48
2022/11/17 06:31:20;;;;;;;1.52;0.68;;;25.10;45.60;;;;;;4132359;28;20057;-47
2022/11/17 06:33:43;;;;;;;1.10;0.63;;;25.00;45.50;;;;;;4129099;28;20060;-54
2022/11/17 06:36:07;;;;;;;1.60;0.60;;;25.00;45.70;;;;;;4132050;28;20060;-50
2022/11/17 06:38:32;;;;;;;3.97;0.73;;;25.00;45.70;;;;;;4129948;28;20487;-52
2022/11/17 06:40:55;;;;;;;1.08;0.50;;;24.90;45.70;;;;;;4132858;28;20108;-55
2022/11/17 06:43:17;;;;;;;1.13;0.60;;;24.90;45.70;;;;;;4127529;28;20042;-50
2022/11/17 06:45:42;;;;;;;0.73;0.55;;;24.80;45.80;;;;;;4123187;28;20162;-52
2022/11/17 06:48:07;;;;;;;0.75;0.50;;;24.80;45.80;;;;;;4126279;28;20136;-52
2022/11/17 06:50:29;;;;;;;1.40;0.60;;;24.80;46.00;;;;;;4124374;28;20038;-51
2022/11/17 06:52:55;;;;;;;1.25;0.60;;;24.80;46.10;;;;;;4110577;28;20054;-56
2022/11/17 06:55:18;;;;;;;1.08;0.50;;;24.70;46.10;;;;;;4123854;28;20034;-55
2022/11/17 06:57:40;;;;;;;1.27;0.57;;;24.80;46.20;;;;;;4124794;28;20038;-50
2022/11/17 07:00:05;;;;;;;1.20;0.63;;;24.70;46.20;;;;;;4124988;28;20038;-54
2022/11/17 07:02:30;;;;;;;0.93;0.40;;;24.70;46.10;;;;;;4121906;28;20042;-51
2022/11/17 07:04:52;;;;;;;0.55;0.38;;;24.70;46.20;;;;;;4119708;28;20038;-54
2022/11/17 07:07:15;;;;;;;1.33;0.50;;;24.70;46.30;;;;;;4121005;28;20048;-50
2022/11/17 07:09:37;;;;;;;5.13;0.82;;;24.60;46.40;;;;;;4122328;28;20129;-52
2022/11/17 07:12:00;;;;;;;1.30;0.65;;;24.60;46.50;;;;;;4124334;28;20605;-56
2022/11/17 07:14:22;;;;;;;1.13;0.60;;;24.60;46.60;;;;;;4120585;28;20085;-50
2022/11/17 07:16:45;;;;;;;1.38;0.68;;;24.60;46.50;;;;;;4126743;28;20206;-47
2022/11/17 07:19:08;;;;;;;2.15;0.50;;;24.60;46.60;;;;;;4122541;28;20053;-48
2022/11/17 07:21:32;;;;;;;1.55;0.60;;;24.50;46.60;;;;;;4120121;28;20038;-55
2022/11/17 07:23:54;;;;;;;0.50;0.40;;;24.50;46.60;;;;;;4128345;28;20115;-47
2022/11/17 07:26:18;;;;;;;1.35;0.50;;;24.50;46.60;;;;;;4130950;28;20057;-56
2022/11/17 07:28:40;;;;;;;1.00;0.40;;;24.40;46.70;;;;;;4131169;28;20096;-55
2022/11/17 07:31:08;;;;;;;0.82;0.40;;;24.40;46.70;;;;;;4127496;28;20521;-58
2022/11/17 07:33:31;;;;;;;1.95;0.52;;;24.40;46.80;;;;;;4132978;28;20042;-47
2022/11/17 07:35:54;;;;;;;0.93;0.60;;;24.40;46.90;;;;;;4130790;28;20508;-51
2022/11/17 07:38:17;;;;;;;1.83;0.38;;;24.40;47.00;;;;;;4133085;28;20302;-50
2022/11/17 07:40:40;;;;;;;1.85;0.50;;;24.40;47.00;;;;;;4136293;28;20116;-47
2022/11/17 07:43:02;;;;;;;1.88;0.60;;;24.30;46.90;;;;;;4128943;28;20058;-59
2022/11/17 07:45:26;;;;;;;1.25;0.50;;;24.30;47.10;;;;;;4132257;28;20121;-50
2022/11/17 07:48:00;;;;;;;2.28;0.65;;;24.30;47.20;;;;;;4135683;28;20561;-52
2022/11/17 07:50:25;;;;;;;1.25;0.40;;;24.30;47.30;;;;;;4135836;28;20049;-49
2022/11/17 07:52:52;;;;;;;0.30;0.25;;;24.20;47.30;;;;;;4135510;28;20159;-47
2022/11/17 07:55:15;;;;;;;0.85;0.50;;;24.20;47.20;;;;;;4134801;28;20049;-52
2022/11/17 07:57:37;;;;;;;2.13;0.60;;;24.20;47.30;;;;;;4135161;28;20579;-54
2022/11/17 08:00:00;;;;;;;1.30;0.60;;;24.20;47.40;;;;;;4135806;28;20437;-50
2022/11/17 08:02:22;;;;;;;0.85;0.50;;;24.20;47.40;;;;;;4453652;23;20025;-39
2022/11/17 08:04:44;;;;;;;2.17;0.70;;;24.20;48.10;;;;;;4128910;28;20412;-41
2022/11/17 08:07:07;;;;;;;0.80;0.47;;;24.20;48.50;;;;;;4125915;28;20042;-41
2022/11/17 08:09:29;;;;;;;0.68;0.40;;;24.20;48.60;;;;;;4130515;28;20496;-41
2022/11/17 08:11:52;;;;;;;1.10;0.50;;;24.20;48.80;;;;;;4132477;28;20137;-40
2022/11/17 08:14:15;;;;;;;2.83;0.38;;;24.20;48.80;;;;;;4134001;28;20193;-40
2022/11/17 08:16:37;;;;;;;1.27;0.68;;;24.10;48.70;;;;;;4131210;28;20045;-39
2022/11/17 08:19:00;;;;;;;0.63;0.40;;;24.10;48.80;;;;;;4114034;28;20034;-40
2022/11/17 08:21:25;;;;;;;0.90;0.60;;;24.10;48.90;;;;;;4131829;28;20037;-39
2022/11/17 08:23:54;;;;;;;2.58;0.40;;;24.10;48.90;;;;;;4131084;28;20133;-39
2022/11/17 08:26:16;;;;;;;1.10;0.30;;;24.10;48.80;;;;;;4132336;28;20041;-42
2022/11/17 08:28:39;;;;;;;0.30;0.30;;;24.00;48.70;;;;;;4132693;28;20251;-40
2022/11/17 08:31:03;;;;;;;1.08;0.50;;;24.00;48.60;;;;;;4131693;28;20049;-40
2022/11/17 08:33:26;;;;;;;2.95;0.70;;;24.00;48.50;;;;;;4132273;28;20042;-39
2022/11/17 08:35:48;;;;;;;0.93;0.65;;;24.00;48.50;;;;;;4120205;28;20605;-42
2022/11/17 08:38:14;;;;;;;3.60;0.60;;;24.00;48.40;;;;;;4130209;28;20184;-41
2022/11/17 08:40:37;;;;;;;1.95;0.70;;;24.00;48.40;;;;;;4130883;28;20080;-39
2022/11/17 08:42:59;;;;;;;1.45;0.63;;;24.00;48.50;;;;;;4132668;28;20029;-40
2022/11/17 08:45:22;;;;;;;2.17;0.47;;;24.00;48.60;;;;;;4133798;28;20096;-39
2022/11/17 08:47:44;;;;;;;1.73;0.80;;;23.90;48.50;;;;;;4130829;28;20037;-38
2022/11/17 08:50:08;;;;;;;0.65;0.47;;;23.90;48.60;;;;;;4130254;28;20057;-41
2022/11/17 08:52:30;;;;;;;1.75;0.88;;;23.90;48.60;;;;;;4127884;28;20056;-39
2022/11/17 08:54:53;;;;;;;6.70;1.00;;;23.90;48.60;;;;;;4131968;28;20040;-40
2022/11/17 08:57:16;;;;;;;2.47;0.82;;;23.90;48.70;;;;;;4131869;28;20038;-39
2022/11/17 08:59:38;;;;;;;2.33;0.80;;;23.90;48.60;;;;;;4132340;28;20374;-39
2022/11/17 09:02:01;;;;;;;2.50;1.00;;;23.90;48.70;;;;;;4129599;28;20045;-38
2022/11/17 09:04:23;;;;;;;2.78;0.70;;;23.80;48.70;;;;;;4117728;28;20057;-42
2022/11/17 09:06:46;;;;;;;2.67;0.60;;;23.80;48.70;;;;;;4117949;28;20042;-39
2022/11/17 09:09:08;;;;;;;4.97;1.10;;;23.80;48.80;;;;;;4116565;28;20948;-42
2022/11/17 09:11:31;;;;;;;3.85;1.05;;;23.80;48.80;;;;;;4115605;28;20045;-40
2022/11/17 09:13:54;;;;;;;1.15;0.45;;;23.80;48.80;;;;;;4117292;28;20050;-38
2022/11/17 09:16:16;;;;;;;1.98;0.70;;;23.80;48.80;;;;;;4115991;28;20046;-40
2022/11/17 09:18:40;;;;;;;2.10;0.95;;;23.80;48.80;;;;;;4102137;28;20552;-40
2022/11/17 09:21:05;;;;;;;9.15;1.13;;;23.80;48.60;;;;;;4115066;28;20046;-38
2022/11/17 09:23:30;;;;;;;5.97;1.10;;;23.70;48.30;;;;;;4118157;28;20438;-39
2022/11/17 09:25:52;;;;;;;6.28;1.55;;;23.70;48.30;;;;;;4114651;28;20120;-39
2022/11/17 09:28:15;;;;;;;5.07;1.27;;;23.70;48.40;;;;;;4114073;28;20046;-41
2022/11/17 09:30:37;;;;;;;7.07;1.10;;;23.70;48.50;;;;;;4115476;28;20058;-39
2022/11/17 09:33:00;;;;;;;5.25;1.17;;;23.70;48.60;;;;;;4116362;28;20042;-46
2022/11/17 09:35:23;;;;;;;4.07;0.93;;;23.60;48.60;;;;;;4100753;28;20377;-39
2022/11/17 09:37:45;;;;;;;3.33;1.00;;;23.70;48.80;;;;;;4115152;28;20521;-40
2022/11/17 09:40:14;;;;;;;5.88;1.15;;;23.60;48.70;;;;;;4115326;28;20561;-38
2022/11/17 09:42:41;;;;;;;4.07;1.10;;;23.60;48.90;;;;;;4116281;28;20503;-38
2022/11/17 09:45:22;;;;;;;4.00;1.10;;;23.60;49.00;;;;;;4114923;28;20046;-39
2022/11/17 09:47:51;;;;;;;4.47;0.90;;;23.70;49.00;;;;;;4112537;28;20064;-39
2022/11/17 09:50:28;;;;;;;4.22;0.70;;;23.60;49.00;;;;;;4115107;28;20461;-38
2022/11/17 09:52:51;;;;;;;6.47;0.93;;;23.60;49.10;;;;;;4112237;28;20038;-39
2022/11/17 09:55:32;;;;;;;2.50;0.90;;;23.60;49.20;;;;;;4115260;28;20113;-39
2022/11/17 09:58:36;;;;;;;15.25;1.27;;;23.60;49.10;;;;;;4115266;28;20042;-41
2022/11/17 10:01:00;;;;;;;6.70;0.97;;;23.60;49.20;;;;;;4114984;28;20369;-39
2022/11/17 10:03:32;;;;;;;5.05;1.08;;;23.60;49.20;;;;;;4125223;28;20544;-40
2022/11/17 10:05:55;;;;;;;2.38;0.63;;;23.60;49.20;;;;;;4131464;28;20501;-39
2022/11/17 10:08:48;;;;;;;5.60;0.90;;;23.60;49.20;;;;;;4131359;28;20037;-40
2022/11/17 10:11:32;;;;;;;2.65;1.05;;;23.60;49.20;;;;;;4128123;28;20505;-40
2022/11/17 10:13:54;;;;;;;1.38;0.60;;;23.60;49.30;;;;;;4131409;28;20049;-41
2022/11/17 10:16:17;;;;;;;1.50;0.57;;;23.60;49.20;;;;;;4131034;28;20394;-39
2022/11/17 10:18:40;;;;;;;2.08;1.00;;;23.60;49.20;;;;;;4129801;28;20484;-39
2022/11/17 10:21:05;;;;;;;2.35;0.50;;;23.60;49.20;;;;;;4130652;28;20544;-39
2022/11/17 10:23:42;;;;;;;1.63;0.70;;;23.60;49.20;;;;;;4127877;28;20038;-42
2022/11/17 10:26:10;;;;;;;5.63;0.77;;;23.50;49.20;;;;;;4132564;28;20054;-41
2022/11/17 10:28:33;;;;;;;8.48;1.20;;;23.50;49.20;;;;;;4126454;28;20045;-39
2022/11/17 10:31:01;;;;;;;3.53;0.85;;;23.50;49.30;;;;;;4130928;28;20045;-41
2022/11/17 10:33:44;;;;;;;2.80;1.20;;;23.50;49.30;;;;;;4126503;28;20375;-39
2022/11/17 10:36:21;;;;;;;2.83;0.60;;;23.50;49.40;;;;;;4129568;28;20044;-41
2022/11/17 10:38:46;;;;;;;2.60;0.80;;;23.50;49.30;;;;;;4130366;28;20088;-40
2022/11/17 10:41:17;;;;;;;1.08;0.40;;;23.50;49.30;;;;;;4131564;28;20037;-40
2022/11/17 10:43:43;;;;;;;2.85;0.70;;;23.50;49.40;;;;;;4131665;28;20432;-39
2022/11/17 10:46:16;;;;;;;2.95;0.85;;;23.50;49.40;;;;;;4129549;28;20125;-39
2022/11/17 10:48:52;;;;;;;4.07;0.80;;;23.40;50.10;;;;;;4129064;28;20052;-39
2022/11/17 10:51:20;;;;;;;6.53;0.88;;;23.40;49.50;;;;;;4129996;28;20092;-38
2022/11/17 10:53:43;;;;;;;5.88;1.08;;;23.40;49.60;;;;;;4120628;28;20041;-42
2022/11/17 10:56:26;;;;;;;4.95;1.10;;;23.40;49.60;;;;;;4130440;28;20747;-39
2022/11/17 10:59:17;;;;;;;5.07;1.00;;;23.40;49.60;;;;;;4124473;28;20112;-40
2022/11/17 11:01:46;;;;;;;3.42;0.93;;;23.40;49.60;;;;;;4132691;28;20062;-39
2022/11/17 11:04:27;;;;;;;5.43;0.60;;;23.40;49.60;;;;;;4132628;28;20453;-42
2022/11/17 11:07:11;;;;;;;1.50;0.80;;;23.40;49.50;;;;;;4131328;28;21261;-39
2022/11/17 11:09:35;;;;;;;;;;;23.40;49.50;;;;;;4131861;28;20093;-39
2022/11/17 11:12:00;;;;;;;3.55;0.98;;;23.30;49.50;;;;;;4129743;28;19925;-39
2022/11/17 11:14:47;;;;;;;1.55;0.40;;;23.30;49.40;;;;;;4135997;28;20048;-39
2022/11/17 11:17:15;;;;;;;18.67;1.08;;;23.30;49.50;;;;;;4134950;28;20041;-38
2022/11/17 11:19:40;;;;;;;0.95;0.60;;;23.30;49.40;;;;;;4132667;28;20053;-40
2022/11/17 11:22:36;;;;;;;6.90;1.00;;;23.30;49.40;;;;;;4134913;28;20434;-40
2022/11/17 11:25:02;;;;;;;3.80;0.80;;;23.30;49.60;;;;;;4133307;28;20571;-44
2022/11/17 11:27:41;;;;;;;6.20;0.60;;;23.30;49.70;;;;;;4135424;28;20049;-47
2022/11/17 11:30:18;;;;;;;3.38;1.15;;;23.30;49.80;;;;;;4134113;28;20042;-45
2022/11/17 11:32:44;;;;;;;3.33;1.10;;;23.30;48.00;;;;;;4137130;28;20050;-45
2022/11/17 11:35:44;;;;;;;3.08;1.10;;;23.20;47.40;;;;;;4129352;28;20066;-45
2022/11/17 11:38:16;;;;;;;3.92;1.10;;;23.20;47.50;;;;;;4132132;28;20062;-48
2022/11/17 11:40:43;;;;;;;7.65;1.48;;;23.10;47.70;;;;;;4135924;28;20037;-44
2022/11/17 11:43:44;;;;;;;8.20;1.75;;;23.10;48.80;;;;;;4131113;28;20125;-44
2022/11/17 11:46:46;;;;;;;5.03;1.20;;;23.00;48.50;;;;;;4134013;28;20065;-44
2022/11/17 11:49:22;;;;;;;2.47;0.82;;;23.00;48.90;;;;;;4107260;28;20049;-44
2022/11/17 11:51:48;;;;;;;6.18;1.50;;;23.00;49.20;;;;;;4142592;28;20046;-44
2022/11/17 11:54:47;;;;;;;4.00;0.70;;;23.00;49.30;;;;;;4139391;28;20061;-45
2022/11/17 11:57:14;;;;;;;1.45;0.68;;;23.00;49.50;;;;;;4109775;28;20052;-43
2022/11/17 11:59:55;;;;;;;2.72;1.10;;;23.00;49.50;;;;;;4141358;28;20026;-45
2022/11/17 12:02:28;;;;;;;3.00;0.80;;;22.90;49.40;;;;;;4138827;28;20466;-48
2022/11/17 12:05:37;;;;;;;4.85;1.00;;;22.90;49.60;;;;;;4131899;28;20404;-45
2022/11/17 12:08:11;;;;;;;4.00;1.15;;;22.90;49.70;;;;;;4134094;28;20045;-44
2022/11/17 12:10:57;;;;;;;4.80;1.00;;;22.90;50.00;;;;;;4134741;28;20394;-45
2022/11/17 12:13:22;;;;;;;4.00;0.98;;;22.90;50.20;;;;;;4132123;28;20112;-45
2022/11/17 12:15:44;;;;;;;7.53;1.02;;;22.80;50.10;;;;;;4137245;28;20100;-46
2022/11/17 12:18:27;;;;;;;2.65;0.85;;;22.90;50.10;;;;;;4133394;28;20120;-48
2022/11/17 12:20:55;;;;;;;1.67;0.55;;;22.80;50.00;;;;;;4132756;28;20476;-45
2022/11/17 12:23:26;;;;;;;1.17;0.82;;;22.80;50.10;;;;;;4132387;28;20056;-47
2022/11/17 12:25:55;;;;;;;1.63;0.70;;;22.80;50.10;;;;;;4132755;28;20041;-44
2022/11/17 12:28:40;;;;;;;5.28;0.80;;;22.70;50.20;;;;;;4133441;28;20037;-47
2022/11/17 12:31:04;;;;;;;;;;;22.70;50.20;;;;;;4132178;28;20041;-48
2022/11/17 12:33:54;;;;;;;1.80;0.70;;;22.70;50.30;;;;;;4132850;28;19916;-45
2022/11/17 12:36:26;;;;;;;5.13;0.90;;;22.70;50.30;;;;;;4131389;28;20037;-44
2022/11/17 12:38:50;;;;;;;7.10;1.27;;;22.70;50.40;;;;;;4126609;28;20129;-39
2022/11/17 12:41:13;;;;;;;6.65;1.20;;;22.70;50.60;;;;;;4132840;28;20034;-39
2022/11/17 12:43:36;;;;;;;4.20;0.80;;;22.60;50.70;;;;;;4118733;28;20050;-41
2022/11/17 12:45:58;;;;;;;4.53;0.70;;;22.70;50.80;;;;;;4132893;28;20042;-39
2022/11/17 12:48:25;;;;;;;2.88;0.88;;;22.60;51.00;;;;;;4130919;28;20048;-39
2022/11/17 12:51:06;;;;;;;6.72;1.20;;;22.60;51.10;;;;;;4136644;28;20080;-39
2022/11/17 12:53:49;;;;;;;6.55;1.02;;;22.60;51.00;;;;;;4133842;28;20358;-39
2022/11/17 12:56:36;;;;;;;3.95;1.15;;;22.60;50.90;;;;;;4133658;28;20061;-38
2022/11/17 12:59:04;;;;;;;4.35;1.42;;;22.60;50.90;;;;;;4133081;28;20042;-39
2022/11/17 13:01:51;;;;;;;2.13;0.75;;;22.50;50.80;;;;;;4130393;28;20041;-42
2022/11/17 13:04:15;;;;;;;4.47;1.00;;;22.50;50.80;;;;;;4134058;28;20085;-40
2022/11/17 13:06:38;;;;;;;1.75;1.02;;;22.50;50.90;;;;;;4133423;28;20061;-41
2022/11/17 13:09:25;;;;;;;2.45;1.00;;;22.50;50.90;;;;;;4130087;28;20042;-40
2022/11/17 13:12:03;;;;;;;1.95;0.80;;;22.40;50.80;;;;;;4134549;28;20069;-42
2022/11/17 13:14:25;;;;;;;5.57;0.80;;;22.40;50.70;;;;;;4132621;28;20069;-39
2022/11/17 13:16:51;;;;;;;2.72;0.75;;;22.40;50.80;;;;;;4129328;28;20045;-40
2022/11/17 13:19:31;;;;;;;0.98;0.57;;;22.40;50.90;;;;;;4131816;28;20077;-40
2022/11/17 13:22:02;;;;;;;4.05;0.90;;;22.40;50.90;;;;;;4131412;28;20065;-41
2022/11/17 13:24:36;;;;;;;4.00;0.68;;;22.40;51.00;;;;;;4130663;28;20089;-41